Map

Track Data

SID SEASON NUMBER BASIN SUBBASIN NAME ISO_TIME NATURE LAT LON WMO_WIND WMO_PRES WMO_AGENCY TRACK_TYPE DIST2LAND LANDFALL IFLAG USA_AGENCY USA_ATCF_ID USA_LAT USA_LON USA_RECORD USA_STATUS USA_WIND USA_PRES USA_SSHS USA_R34_NE USA_R34_SE USA_R34_SW USA_R34_NW USA_R50_NE USA_R50_SE USA_R50_SW USA_R50_NW USA_R64_NE USA_R64_SE USA_R64_SW USA_R64_NW USA_POCI USA_ROCI USA_RMW USA_EYE TOKYO_LAT TOKYO_LON TOKYO_GRADE TOKYO_WIND TOKYO_PRES TOKYO_R50_DIR TOKYO_R50_LONG TOKYO_R50_SHORT TOKYO_R30_DIR TOKYO_R30_LONG TOKYO_R30_SHORT TOKYO_LAND CMA_LAT CMA_LON CMA_CAT CMA_WIND CMA_PRES HKO_LAT HKO_LON HKO_CAT HKO_WIND HKO_PRES NEWDELHI_LAT NEWDELHI_LON NEWDELHI_GRADE NEWDELHI_WIND NEWDELHI_PRES NEWDELHI_CI NEWDELHI_DP NEWDELHI_POCI REUNION_LAT REUNION_LON REUNION_TYPE REUNION_WIND REUNION_PRES REUNION_TNUM REUNION_CI REUNION_RMW REUNION_R34_NE REUNION_R34_SE REUNION_R34_SW REUNION_R34_NW REUNION_R50_NE REUNION_R50_SE REUNION_R50_SW REUNION_R50_NW REUNION_R64_NE REUNION_R64_SE REUNION_R64_SW REUNION_R64_NW BOM_LAT BOM_LON BOM_TYPE BOM_WIND BOM_PRES BOM_TNUM BOM_CI BOM_RMW BOM_R34_NE BOM_R34_SE BOM_R34_SW BOM_R34_NW BOM_R50_NE BOM_R50_SE BOM_R50_SW BOM_R50_NW BOM_R64_NE BOM_R64_SE BOM_R64_SW BOM_R64_NW BOM_ROCI BOM_POCI BOM_EYE BOM_POS_METHOD BOM_PRES_METHOD NADI_LAT NADI_LON NADI_CAT NADI_WIND NADI_PRES WELLINGTON_LAT WELLINGTON_LON WELLINGTON_WIND WELLINGTON_PRES DS824_LAT DS824_LON DS824_STAGE DS824_WIND DS824_PRES TD9636_LAT TD9636_LON TD9636_STAGE TD9636_WIND TD9636_PRES TD9635_LAT TD9635_LON TD9635_WIND TD9635_PRES TD9635_ROCI NEUMANN_LAT NEUMANN_LON NEUMANN_CLASS NEUMANN_WIND NEUMANN_PRES MLC_LAT MLC_LON MLC_CLASS MLC_WIND MLC_PRES USA_GUST BOM_GUST BOM_GUST_PER REUNION_GUST REUNION_GUST_PER USA_SEAHGT USA_SEARAD_NE USA_SEARAD_SE USA_SEARAD_SW USA_SEARAD_NW STORM_SPEED STORM_DIR
1848011S15057 1848 3 SI MM NOT_NAMED 1848-01-11 06:00:00 NR -15.2000 57.4000 reunion main 548 548 _____O________ -1 -15.2000 57.4000 99 9.90000 2 67
1848011S15057 1848 3 SI MM NOT_NAMED 1848-01-11 09:00:00 NR -15.1537 57.5179 main 548 548 _____P________ -1 -15.1537 57.5179 99 2 69
1848011S15057 1848 3 SI MM NOT_NAMED 1848-01-11 12:00:00 NR -15.1190 57.6150 main 559 559 _____P________ -1 -15.1190 57.6150 99 2 72
1848011S15057 1848 3 SI MM NOT_NAMED 1848-01-11 15:00:00 NR -15.1074 57.6707 main 559 559 _____P________ -1 -15.1074 57.6707 99 0 107
1848011S15057 1848 3 SI MM NOT_NAMED 1848-01-11 18:00:00 NR -15.1306 57.6642 main 559 548 _____P________ -1 -15.1306 57.6642 99 1 222
1848011S15057 1848 3 SI MM NOT_NAMED 1848-01-11 21:00:00 NR -15.2000 57.5751 main 548 537 _____P________ -1 -15.2000 57.5751 99 3 234
1848011S15057 1848 3 SI MM NOT_NAMED 1848-01-12 00:00:00 NR -15.3272 57.3822 main 537 515 _____P________ -1 -15.3272 57.3822 99 6 237
1848011S15057 1848 3 SI MM NOT_NAMED 1848-01-12 03:00:00 NR -15.5235 57.0644 main 516 488 _____P________ -1 -15.5235 57.0644 99 9 238
1848011S15057 1848 3 SI MM NOT_NAMED 1848-01-12 06:00:00 NR -15.8000 56.6000 reunion main 490 468 _____O________ -1 -15.8000 56.6000 99 9.90000 12 239
1848011S15057 1848 3 SI MM NOT_NAMED 1848-01-12 09:00:00 NR -16.1637 55.9762 main 464 455 _____P________ -1 -16.1637 55.9762 99 16 239
1848011S15057 1848 3 SI MM NOT_NAMED 1848-01-12 12:00:00 NR -16.6066 55.2188 main 460 444 _____P________ -1 -16.6066 55.2188 99 18 238
1848011S15057 1848 3 SI MM NOT_NAMED 1848-01-12 15:00:00 NR -17.1170 54.3635 main 446 399 _____P________ -1 -17.1170 54.3635 99 20 238
1848011S15057 1848 3 SI MM NOT_NAMED 1848-01-12 18:00:00 NR -17.6833 53.4463 main 390 332 _____P________ -1 -17.6833 53.4463 99 21 236
1848011S15057 1848 3 SI MM NOT_NAMED 1848-01-12 21:00:00 NR -18.2947 52.5040 main 324 244 _____P________ -1 -18.2947 52.5040 99 22 235
1848011S15057 1848 3 SI MM NOT_NAMED 1848-01-13 00:00:00 NR -18.9407 51.5736 main 244 180 _____P________ -1 -18.9407 51.5736 99 22 232
1848011S15057 1848 3 SI MM NOT_NAMED 1848-01-13 03:00:00 NR -19.6120 50.6929 main 180 119 _____P________ -1 -19.6120 50.6929 99 21 229
1848011S15057 1848 3 SI MM NOT_NAMED 1848-01-13 06:00:00 NR -20.3000 49.9000 reunion main 119 80 _____O________ -1 -20.3000 49.9000 99 9.90000 19 226
1848011S15057 1848 3 SI MM NOT_NAMED 1848-01-13 09:00:00 NR -20.9360 49.2123 main 80 32 _____P________ -1 -20.9360 49.2123 99 18 223
1848011S15057 1848 3 SI MM NOT_NAMED 1848-01-13 12:00:00 NR -21.5976 48.5838 main 38 10 _____P________ -1 -21.5976 48.5838 99 17 219
1848011S15057 1848 3 SI MM NOT_NAMED 1848-01-13 15:00:00 NR -22.2845 48.0255 main 10 0 _____P________ -1 -22.2845 48.0255 99 17 214
1848011S15057 1848 3 SI MM NOT_NAMED 1848-01-13 18:00:00 NR -22.9968 47.5487 main 0 0 _____P________ -1 -22.9968 47.5487 99 17 209
1848011S15057 1848 3 SI MM NOT_NAMED 1848-01-13 21:00:00 NR -23.7345 47.1652 main 0 0 _____P________ -1 -23.7345 47.1652 99 16 202
1848011S15057 1848 3 SI MM NOT_NAMED 1848-01-14 00:00:00 NR -24.4976 46.8873 main 0 0 _____P________ -1 -24.4976 46.8873 99 16 194
1848011S15057 1848 3 SI MM NOT_NAMED 1848-01-14 03:00:00 NR -25.2862 46.7277 main 11 11 _____P________ -1 -25.2862 46.7277 99 16 186
1848011S15057 1848 3 SI MM NOT_NAMED 1848-01-14 06:00:00 NR -26.1000 46.7000 reunion main 100 100 _____O________ -1 -26.1000 46.7000 99 9.90000 18 176
1848011S15057 1848 3 SI MM NOT_NAMED 1848-01-14 09:00:00 NR -27.0464 46.8712 main 201 201 _____P________ -1 -27.0464 46.8712 99 20 167
1848011S15057 1848 3 SI MM NOT_NAMED 1848-01-14 12:00:00 NR -28.0367 47.1981 main 315 315 _____P________ -1 -28.0367 47.1981 99 21 161
1848011S15057 1848 3 SI MM NOT_NAMED 1848-01-14 15:00:00 NR -29.0407 47.6469 main 431 431 _____P________ -1 -29.0407 47.6469 99 22 157
1848011S15057 1848 3 SI MM NOT_NAMED 1848-01-14 18:00:00 NR -30.0275 48.1821 main 553 553 _____P________ -1 -30.0275 48.1821 99 22 153
1848011S15057 1848 3 SI MM NOT_NAMED 1848-01-14 21:00:00 NR -30.9665 48.7661 main 676 676 _____P________ -1 -30.9665 48.7661 99 21 151
1848011S15057 1848 3 SI MM NOT_NAMED 1848-01-15 00:00:00 NR -31.8276 49.3590 main 779 779 _____P________ -1 -31.8276 49.3590 99 19 149
1848011S15057 1848 3 SI MM NOT_NAMED 1848-01-15 03:00:00 NR -32.5815 49.9183 main 879 879 _____P________ -1 -32.5815 49.9183 99 16 147
1848011S15057 1848 3 SI MM NOT_NAMED 1848-01-15 06:00:00 NR -33.2000 50.4000 reunion main 958 958 _____O________ -1 -33.2000 50.4000 99 9.90000 13 147
1848011S15057 1848 3 SI MM NOT_NAMED 1848-01-15 09:00:00 NR -33.6638 50.7682 main 1024 1024 _____P________ -1 -33.6638 50.7682 99 9 146
1848011S15057 1848 3 SI MM NOT_NAMED 1848-01-15 12:00:00 NR -33.9862 51.0261 main 1062 1062 _____P________ -1 -33.9862 51.0261 99 6 146
1848011S15057 1848 3 SI MM NOT_NAMED 1848-01-15 15:00:00 NR -34.1882 51.1878 main 1090 1090 _____P________ -1 -34.1882 51.1878 99 4 146
1848011S15057 1848 3 SI MM NOT_NAMED 1848-01-15 18:00:00 NR -34.2903 51.2682 main 1103 1103 _____P________ -1 -34.2903 51.2682 99 1 147
1848011S15057 1848 3 SI MM NOT_NAMED 1848-01-15 21:00:00 NR -34.3126 51.2834 main 1103 1103 _____P________ -1 -34.3126 51.2834 99 0 0
1848011S15057 1848 3 SI MM NOT_NAMED 1848-01-16 00:00:00 NR -34.2750 51.2494 main 1100 1090 _____P________ -1 -34.2750 51.2494 99 1 327
1848011S15057 1848 3 SI MM NOT_NAMED 1848-01-16 03:00:00 NR -34.1976 51.1828 main 1090 1076 _____P________ -1 -34.1976 51.1828 99 2 324
1848011S15057 1848 3 SI MM NOT_NAMED 1848-01-16 06:00:00 NR -34.1000 51.1000 reunion main 1076 _____O________ -1 -34.1000 51.1000 99 9.90000 2 325

About IBTrACS Database

This database is a web-friendly format of International Best Track Archive for Climate Stewardship (IBTrACS), a global best track data archive curated by NOAA dating back to 1842.

Updated: 2021-11-26